createdAt,value
2018-09-30T00:00:34.617Z,10.75
2018-09-30T00:01:15.169Z,10.72
2018-09-30T00:01:55.720Z,10.79
2018-09-30T00:02:36.276Z,10.76
2018-09-30T00:03:16.826Z,10.72
2018-09-30T00:03:57.381Z,10.75
2018-09-30T00:04:37.935Z,10.79
2018-09-30T00:05:18.490Z,10.76
2018-09-30T00:05:59.059Z,10.74
2018-09-30T00:06:39.717Z,10.74
2018-09-30T00:07:20.349Z,10.76
2018-09-30T00:08:00.880Z,10.69
2018-09-30T00:08:41.567Z,10.68
2018-09-30T00:09:22.132Z,10.67
2018-09-30T00:10:02.701Z,10.63
2018-09-30T00:10:43.264Z,10.6
2018-09-30T00:11:23.816Z,10.59
2018-09-30T00:12:04.384Z,10.64
2018-09-30T00:12:44.937Z,10.61
2018-09-30T00:13:25.520Z,10.61
2018-09-30T00:14:06.080Z,10.6
2018-09-30T00:14:46.635Z,10.61
2018-09-30T00:15:27.191Z,10.6
2018-09-30T00:16:07.763Z,10.54
2018-09-30T00:16:48.342Z,10.61
2018-09-30T00:17:28.906Z,10.54
2018-09-30T00:18:09.462Z,10.51
2018-09-30T00:18:50.016Z,10.57
2018-09-30T00:19:30.642Z,10.56
2018-09-30T00:20:11.151Z,10.44
2018-09-30T00:20:51.734Z,10.44
2018-09-30T00:21:32.285Z,10.46
2018-09-30T00:22:12.837Z,10.53
2018-09-30T00:22:53.394Z,10.44
2018-09-30T00:23:34.016Z,10.49
2018-09-30T00:24:14.580Z,10.46
2018-09-30T00:24:55.124Z,10.48
2018-09-30T00:25:35.679Z,10.42
2018-09-30T00:26:16.308Z,10.48
2018-09-30T00:26:56.866Z,10.42
2018-09-30T00:27:37.441Z,10.44
2018-09-30T00:28:17.999Z,10.41
2018-09-30T00:28:58.546Z,10.4
2018-09-30T00:29:39.104Z,10.42
2018-09-30T00:30:19.680Z,10.38
2018-09-30T00:31:00.227Z,10.35
2018-09-30T00:31:40.835Z,10.26
2018-09-30T00:32:21.339Z,10.3
2018-09-30T00:33:01.902Z,10.19
2018-09-30T00:33:42.463Z,10.31
2018-09-30T00:34:23.031Z,10.26
2018-09-30T00:35:03.594Z,10.26
2018-09-30T00:35:44.162Z,10.35
2018-09-30T00:36:24.780Z,10.22
2018-09-30T00:37:05.302Z,10.34
2018-09-30T00:37:45.852Z,10.3
2018-09-30T00:38:26.470Z,10.25
2018-09-30T00:39:07.033Z,10.38
2018-09-30T00:39:47.601Z,10.35
2018-09-30T00:40:28.157Z,10.37
2018-09-30T00:41:08.711Z,10.31
2018-09-30T00:41:49.265Z,10.26
2018-09-30T00:42:29.827Z,10.33
2018-09-30T00:43:10.383Z,10.33
2018-09-30T00:43:50.954Z,10.3
2018-09-30T00:44:31.497Z,10.25
2018-09-30T00:45:12.053Z,10.31
2018-09-30T00:45:52.615Z,10.31
2018-09-30T00:46:33.175Z,10.33
2018-09-30T00:47:13.736Z,10.31
2018-09-30T00:47:54.304Z,10.3
2018-09-30T00:48:34.859Z,10.3
2018-09-30T00:49:15.422Z,10.22
2018-09-30T00:49:55.980Z,10.25
2018-09-30T00:50:36.523Z,10.23
2018-09-30T00:51:17.090Z,10.26
2018-09-30T00:51:57.657Z,10.23
2018-09-30T00:52:38.220Z,10.2
2018-09-30T00:53:18.775Z,10.23
2018-09-30T00:53:59.362Z,10.22
2018-09-30T00:54:39.919Z,10.2
2018-09-30T00:55:20.491Z,10.17
2018-09-30T00:56:01.041Z,10.26
2018-09-30T00:56:41.600Z,10.23
2018-09-30T00:57:22.155Z,10.1
2018-09-30T00:58:02.708Z,10.19
2018-09-30T00:58:43.294Z,10.19
2018-09-30T00:59:23.849Z,10.1
2018-09-30T01:00:04.440Z,10.07
2018-09-30T01:00:45.003Z,10.04
2018-09-30T01:01:25.587Z,10.07
2018-09-30T01:02:06.160Z,10.07
2018-09-30T01:02:46.773Z,10.09
2018-09-30T01:03:27.375Z,10.04
2018-09-30T01:04:07.973Z,10.05
2018-09-30T01:04:48.522Z,10.12
2018-09-30T01:05:29.110Z,10.09
2018-09-30T01:06:09.640Z,10.12
2018-09-30T01:06:50.215Z,10.07
2018-09-30T01:07:30.780Z,10.07
2018-09-30T01:08:11.337Z,10.05
2018-09-30T01:08:51.893Z,10.07
2018-09-30T01:09:32.495Z,10.09
2018-09-30T01:10:13.105Z,9.98
2018-09-30T01:10:53.665Z,10.04
2018-09-30T01:11:34.222Z,9.98
2018-09-30T01:12:14.781Z,9.97
2018-09-30T01:12:55.382Z,9.94
2018-09-30T01:13:35.982Z,10.05
2018-09-30T01:14:16.573Z,10.01
2018-09-30T01:14:57.130Z,10.04
2018-09-30T01:15:37.698Z,9.97
2018-09-30T01:16:18.269Z,9.97
2018-09-30T01:16:58.833Z,9.98
2018-09-30T01:17:39.396Z,10.04
2018-09-30T01:18:19.962Z,9.99
2018-09-30T01:19:00.525Z,9.99
2018-09-30T01:19:41.065Z,9.98
2018-09-30T01:20:21.646Z,9.95
2018-09-30T01:21:02.222Z,9.92
2018-09-30T01:21:42.817Z,9.99
2018-09-30T01:22:23.382Z,9.95
2018-09-30T01:23:03.937Z,9.95
2018-09-30T01:23:44.512Z,10.01
2018-09-30T01:24:25.061Z,9.97
2018-09-30T01:25:05.654Z,9.94
2018-09-30T01:25:46.217Z,9.94
2018-09-30T01:26:26.785Z,9.92
2018-09-30T01:27:07.336Z,9.94
2018-09-30T01:27:47.907Z,9.89
2018-09-30T01:28:28.462Z,9.92
2018-09-30T01:29:09.050Z,9.97
2018-09-30T01:29:49.652Z,9.94
2018-09-30T01:30:30.204Z,9.99
2018-09-30T01:31:10.757Z,9.97
2018-09-30T01:31:51.333Z,10.01
2018-09-30T01:32:31.928Z,10.02
2018-09-30T01:33:12.478Z,9.91
2018-09-30T01:33:53.034Z,10.01
2018-09-30T01:34:33.599Z,10.02
2018-09-30T01:35:14.151Z,9.94
2018-09-30T01:35:54.749Z,9.92
2018-09-30T01:36:35.323Z,9.98
2018-09-30T01:37:15.885Z,9.94
2018-09-30T01:37:56.493Z,9.82
2018-09-30T01:38:36.998Z,9.98
2018-09-30T01:39:17.559Z,9.82
2018-09-30T01:39:58.122Z,9.95
2018-09-30T01:40:38.667Z,9.84
2018-09-30T01:41:19.224Z,9.87
2018-09-30T01:41:59.785Z,9.84
2018-09-30T01:42:40.354Z,9.84
2018-09-30T01:43:20.920Z,9.83
2018-09-30T01:44:01.481Z,9.82
2018-09-30T01:44:42.051Z,9.89
2018-09-30T01:45:22.613Z,9.83
2018-09-30T01:46:03.169Z,9.92
2018-09-30T01:46:43.785Z,9.89
2018-09-30T01:47:24.309Z,9.84
2018-09-30T01:48:04.856Z,9.79
2018-09-30T01:48:45.417Z,9.84
2018-09-30T01:49:25.979Z,9.79
2018-09-30T01:50:06.531Z,9.76
2018-09-30T01:50:47.101Z,9.79
2018-09-30T01:51:27.664Z,9.8
2018-09-30T01:52:08.251Z,9.84
2018-09-30T01:52:48.803Z,9.83
2018-09-30T01:53:29.377Z,9.84
2018-09-30T01:54:09.930Z,9.8
2018-09-30T01:54:50.508Z,9.79
2018-09-30T01:55:31.104Z,9.84
2018-09-30T01:56:11.664Z,9.83
2018-09-30T01:56:52.239Z,9.77
2018-09-30T01:57:32.795Z,9.76
2018-09-30T01:58:13.374Z,9.77
2018-09-30T01:58:53.927Z,9.74
2018-09-30T01:59:34.485Z,9.72
2018-09-30T02:00:15.047Z,9.74
2018-09-30T02:00:55.644Z,9.73
2018-09-30T02:01:36.211Z,9.84
2018-09-30T02:02:16.774Z,9.74
2018-09-30T02:02:57.332Z,9.73
2018-09-30T02:03:37.890Z,9.74
2018-09-30T02:04:18.438Z,9.77
2018-09-30T02:04:58.993Z,9.77
2018-09-30T02:05:39.553Z,9.76
2018-09-30T02:06:20.126Z,9.73
2018-09-30T02:07:00.696Z,9.76
2018-09-30T02:07:41.251Z,9.69
2018-09-30T02:08:21.811Z,9.77
2018-09-30T02:09:02.394Z,9.69
2018-09-30T02:09:42.949Z,9.74
2018-09-30T02:10:23.505Z,9.68
2018-09-30T02:11:04.059Z,9.79
2018-09-30T02:11:44.625Z,9.76
2018-09-30T02:12:25.182Z,9.72
2018-09-30T02:13:05.736Z,9.74
2018-09-30T02:13:46.305Z,9.73
2018-09-30T02:14:26.867Z,9.74
2018-09-30T02:15:07.425Z,9.66
2018-09-30T02:15:48.004Z,9.74
2018-09-30T02:16:28.557Z,9.65
2018-09-30T02:17:09.105Z,9.77
2018-09-30T02:17:49.672Z,9.77
2018-09-30T02:18:30.287Z,9.79
2018-09-30T02:19:10.833Z,9.73
2018-09-30T02:19:51.410Z,9.72
2018-09-30T02:20:31.995Z,9.69
2018-09-30T02:21:12.552Z,9.69
2018-09-30T02:21:53.114Z,9.65
2018-09-30T02:22:33.688Z,9.72
2018-09-30T02:23:14.247Z,9.65
2018-09-30T02:23:54.817Z,9.73
2018-09-30T02:24:35.379Z,9.69
2018-09-30T02:25:15.984Z,9.72
2018-09-30T02:25:56.548Z,9.66
2018-09-30T02:26:37.102Z,9.66
2018-09-30T02:27:17.659Z,9.65
2018-09-30T02:27:58.214Z,9.61
2018-09-30T02:28:38.756Z,9.65
2018-09-30T02:29:19.319Z,9.68
2018-09-30T02:29:59.885Z,9.62
2018-09-30T02:30:40.467Z,9.68
2018-09-30T02:31:21.031Z,9.62
2018-09-30T02:32:01.588Z,9.56
2018-09-30T02:32:42.150Z,9.65
2018-09-30T02:33:22.711Z,9.61
2018-09-30T02:34:03.300Z,9.61
2018-09-30T02:34:43.869Z,9.55
2018-09-30T02:35:24.484Z,9.59
2018-09-30T02:36:05.058Z,9.61
2018-09-30T02:36:45.601Z,9.55
2018-09-30T02:37:26.324Z,9.54
2018-09-30T02:38:06.876Z,9.51
2018-09-30T02:38:47.433Z,9.59
2018-09-30T02:39:28.003Z,9.64
2018-09-30T02:40:08.589Z,9.56
2018-09-30T02:40:49.135Z,9.48
2018-09-30T02:41:29.709Z,9.51
2018-09-30T02:42:10.272Z,9.51
2018-09-30T02:42:50.824Z,9.47
2018-09-30T02:43:31.375Z,9.48
2018-09-30T02:44:11.929Z,9.46
2018-09-30T02:44:52.503Z,9.47
2018-09-30T02:45:33.051Z,9.46
2018-09-30T02:46:13.622Z,9.47
2018-09-30T02:46:54.180Z,9.47
2018-09-30T02:47:34.766Z,9.5
2018-09-30T02:48:15.318Z,9.51
2018-09-30T02:48:55.879Z,9.44
2018-09-30T02:49:36.435Z,9.55
2018-09-30T02:50:17.011Z,9.43
2018-09-30T02:50:57.553Z,9.41
2018-09-30T02:51:38.110Z,9.39
2018-09-30T02:52:18.663Z,9.37
2018-09-30T02:52:59.217Z,9.37
2018-09-30T02:53:39.801Z,9.36
2018-09-30T02:54:20.375Z,9.36
2018-09-30T02:55:00.936Z,9.32
2018-09-30T02:55:41.492Z,9.28
2018-09-30T02:56:22.048Z,9.26
2018-09-30T02:57:02.601Z,9.26
2018-09-30T02:57:43.157Z,9.31
2018-09-30T02:58:23.714Z,9.31
2018-09-30T02:59:04.281Z,9.31
2018-09-30T02:59:44.840Z,9.28
2018-09-30T03:00:25.413Z,9.29
2018-09-30T03:01:05.972Z,9.22
2018-09-30T03:01:46.550Z,9.31
2018-09-30T03:02:27.138Z,9.28
2018-09-30T03:03:07.711Z,9.32
2018-09-30T03:03:48.260Z,9.31
2018-09-30T03:04:28.827Z,9.36
2018-09-30T03:05:09.402Z,9.36
2018-09-30T03:05:49.969Z,9.32
2018-09-30T03:06:30.524Z,9.37
2018-09-30T03:07:11.078Z,9.37
2018-09-30T03:07:51.638Z,9.37
2018-09-30T03:08:32.190Z,9.36
2018-09-30T03:09:12.751Z,9.37
2018-09-30T03:09:53.309Z,9.34
2018-09-30T03:10:33.870Z,9.36
2018-09-30T03:11:14.434Z,9.34
2018-09-30T03:11:54.982Z,9.31
2018-09-30T03:12:35.551Z,9.25
2018-09-30T03:13:16.107Z,9.37
2018-09-30T03:13:56.665Z,9.34
2018-09-30T03:14:37.224Z,9.25
2018-09-30T03:15:17.782Z,9.22
2018-09-30T03:15:58.335Z,9.25
2018-09-30T03:16:38.922Z,9.23
2018-09-30T03:17:19.519Z,9.25
2018-09-30T03:18:00.149Z,9.23
2018-09-30T03:18:40.721Z,9.19
2018-09-30T03:19:21.282Z,9.19
2018-09-30T03:20:01.941Z,9.28
2018-09-30T03:20:42.492Z,9.26
2018-09-30T03:21:23.058Z,9.22
2018-09-30T03:22:03.613Z,9.26
2018-09-30T03:22:44.162Z,9.25
2018-09-30T03:23:24.732Z,9.26
2018-09-30T03:24:05.299Z,9.22
2018-09-30T03:24:45.855Z,9.23
2018-09-30T03:25:26.417Z,9.21
2018-09-30T03:26:06.984Z,9.25
2018-09-30T03:26:47.546Z,9.22
2018-09-30T03:27:28.167Z,9.19
2018-09-30T03:28:08.707Z,9.18
2018-09-30T03:28:49.304Z,9.21
2018-09-30T03:29:29.851Z,9.14
2018-09-30T03:30:10.397Z,9.11
2018-09-30T03:30:50.972Z,9.21
2018-09-30T03:31:31.521Z,9.16
2018-09-30T03:32:12.075Z,9.13
2018-09-30T03:32:52.672Z,9.13
2018-09-30T03:33:33.231Z,9.18
2018-09-30T03:34:13.818Z,9.06
2018-09-30T03:34:54.385Z,9.08
2018-09-30T03:35:34.985Z,9.13
2018-09-30T03:36:15.534Z,9.08
2018-09-30T03:36:56.096Z,9.1
2018-09-30T03:37:36.644Z,9.19
2018-09-30T03:38:17.205Z,9.08
2018-09-30T03:38:57.767Z,9.08
2018-09-30T03:39:38.361Z,9.16
2018-09-30T03:40:18.948Z,9.26
2018-09-30T03:40:59.510Z,9.19
2018-09-30T03:41:40.058Z,9.14
2018-09-30T03:42:20.606Z,9.14
2018-09-30T03:43:01.170Z,9.16
2018-09-30T03:43:41.730Z,9.08
2018-09-30T03:44:22.297Z,9.1
2018-09-30T03:45:02.857Z,9.1
2018-09-30T03:45:43.445Z,9.1
2018-09-30T03:46:24.017Z,9.1
2018-09-30T03:47:04.589Z,9.11
2018-09-30T03:47:45.140Z,9.11
2018-09-30T03:48:25.716Z,9.13
2018-09-30T03:49:06.269Z,9.1
2018-09-30T03:49:46.857Z,9
2018-09-30T03:50:27.395Z,9
2018-09-30T03:51:07.958Z,8.99
2018-09-30T03:51:48.508Z,9.13
2018-09-30T03:52:29.079Z,9.13
2018-09-30T03:53:09.631Z,8.99
2018-09-30T03:53:50.199Z,9.11
2018-09-30T03:54:30.754Z,8.99
2018-09-30T03:55:11.335Z,9.1
2018-09-30T03:55:51.923Z,9.1
2018-09-30T03:56:32.506Z,9.02
2018-09-30T03:57:13.018Z,9.04
2018-09-30T03:57:53.601Z,9.13
2018-09-30T03:58:34.175Z,9.06
2018-09-30T03:59:14.725Z,8.99
2018-09-30T03:59:55.279Z,9.04
2018-09-30T04:00:35.830Z,8.99
2018-09-30T04:01:16.393Z,9.11
2018-09-30T04:01:56.953Z,9
2018-09-30T04:02:37.515Z,8.95
2018-09-30T04:03:18.063Z,8.94
2018-09-30T04:03:58.675Z,8.92
2018-09-30T04:04:39.268Z,8.94
2018-09-30T04:05:19.840Z,8.97
2018-09-30T04:06:00.397Z,9
2018-09-30T04:06:40.966Z,8.89
2018-09-30T04:07:21.532Z,8.97
2018-09-30T04:08:02.100Z,8.88
2018-09-30T04:08:42.659Z,8.88
2018-09-30T04:09:23.253Z,8.89
2018-09-30T04:10:03.895Z,8.89
2018-09-30T04:10:44.415Z,8.89
2018-09-30T04:11:24.985Z,8.88
2018-09-30T04:12:05.553Z,8.88
2018-09-30T04:12:46.113Z,8.92
2018-09-30T04:13:26.673Z,8.79
2018-09-30T04:14:07.239Z,8.85
2018-09-30T04:14:47.792Z,8.82
2018-09-30T04:15:28.362Z,8.79
2018-09-30T04:16:08.929Z,8.74
2018-09-30T04:16:49.534Z,8.76
2018-09-30T04:17:30.107Z,8.74
2018-09-30T04:18:10.617Z,8.71
2018-09-30T04:18:51.172Z,8.7
2018-09-30T04:19:31.723Z,8.78
2018-09-30T04:20:12.298Z,8.79
2018-09-30T04:20:52.843Z,8.78
2018-09-30T04:21:33.404Z,8.78
2018-09-30T04:22:13.970Z,8.74
2018-09-30T04:22:54.526Z,8.71
2018-09-30T04:23:35.077Z,8.78
2018-09-30T04:24:15.640Z,8.74
2018-09-30T04:24:56.191Z,8.79
2018-09-30T04:25:36.774Z,8.76
2018-09-30T04:26:17.370Z,8.73
2018-09-30T04:26:57.900Z,8.76
2018-09-30T04:27:38.452Z,8.73
2018-09-30T04:28:19.005Z,8.74
2018-09-30T04:28:59.562Z,8.76
2018-09-30T04:29:40.120Z,8.71
2018-09-30T04:30:20.716Z,8.71
2018-09-30T04:31:01.269Z,8.74
2018-09-30T04:31:41.834Z,8.74
2018-09-30T04:32:22.388Z,8.74
2018-09-30T04:33:02.965Z,8.76
2018-09-30T04:33:43.520Z,8.76
2018-09-30T04:34:24.071Z,8.74
2018-09-30T04:35:04.633Z,8.78
2018-09-30T04:35:45.194Z,8.74
2018-09-30T04:36:25.762Z,8.78
2018-09-30T04:37:06.312Z,8.74
2018-09-30T04:37:46.866Z,8.78
2018-09-30T04:38:27.425Z,8.79
2018-09-30T04:39:07.995Z,8.76
2018-09-30T04:39:48.554Z,8.74
2018-09-30T04:40:29.102Z,8.74
2018-09-30T04:41:09.713Z,8.81
2018-09-30T04:41:50.258Z,8.74
2018-09-30T04:42:30.821Z,8.76
2018-09-30T04:43:11.373Z,8.78
2018-09-30T04:43:51.940Z,8.76
2018-09-30T04:44:32.486Z,8.81
2018-09-30T04:45:13.041Z,8.76
2018-09-30T04:45:53.597Z,8.74
2018-09-30T04:46:34.152Z,8.74
2018-09-30T04:47:14.730Z,8.7
2018-09-30T04:47:55.297Z,8.79
2018-09-30T04:48:35.854Z,8.74
2018-09-30T04:49:16.406Z,8.7
2018-09-30T04:49:56.965Z,8.67
2018-09-30T04:50:37.511Z,8.63
2018-09-30T04:51:18.086Z,8.73
2018-09-30T04:51:58.657Z,8.71
2018-09-30T04:52:39.232Z,8.64
2018-09-30T04:53:19.794Z,8.73
2018-09-30T04:54:00.360Z,8.71
2018-09-30T04:54:40.914Z,8.73
2018-09-30T04:55:21.476Z,8.63
2018-09-30T04:56:02.028Z,8.73
2018-09-30T04:56:42.599Z,8.67
2018-09-30T04:57:23.158Z,8.7
2018-09-30T04:58:03.726Z,8.69
2018-09-30T04:58:44.278Z,8.64
2018-09-30T04:59:24.843Z,8.61
2018-09-30T05:00:05.410Z,8.61
2018-09-30T05:00:45.960Z,8.66
2018-09-30T05:01:26.531Z,8.63
2018-09-30T05:02:07.099Z,8.64
2018-09-30T05:02:47.656Z,8.7
2018-09-30T05:03:28.201Z,8.67
2018-09-30T05:04:08.772Z,8.61
2018-09-30T05:04:49.321Z,8.67
2018-09-30T05:05:29.887Z,8.6
2018-09-30T05:06:10.445Z,8.58
2018-09-30T05:06:51.011Z,8.64
2018-09-30T05:07:31.572Z,8.73
2018-09-30T05:08:12.123Z,8.61
2018-09-30T05:08:52.673Z,8.66
2018-09-30T05:09:33.231Z,8.61
2018-09-30T05:10:13.814Z,8.61
2018-09-30T05:10:54.389Z,8.66
2018-09-30T05:11:34.948Z,8.63
2018-09-30T05:12:15.507Z,8.63
2018-09-30T05:12:56.074Z,8.6
2018-09-30T05:13:36.626Z,8.61
2018-09-30T05:14:17.196Z,8.66
2018-09-30T05:14:57.750Z,8.63
2018-09-30T05:15:38.303Z,8.7
2018-09-30T05:16:18.883Z,8.66
2018-09-30T05:16:59.426Z,8.69
2018-09-30T05:17:39.997Z,8.63
2018-09-30T05:18:20.558Z,8.64
2018-09-30T05:19:01.108Z,8.66
2018-09-30T05:19:41.676Z,8.7
2018-09-30T05:20:22.225Z,8.73
2018-09-30T05:21:02.787Z,8.69
2018-09-30T05:21:43.344Z,8.66
2018-09-30T05:22:23.906Z,8.63
2018-09-30T05:23:04.464Z,8.7
2018-09-30T05:23:45.019Z,8.73
2018-09-30T05:24:25.571Z,8.67
2018-09-30T05:25:06.134Z,8.71
2018-09-30T05:25:46.963Z,8.71
2018-09-30T05:26:27.299Z,8.71
2018-09-30T05:27:07.860Z,8.67
2018-09-30T05:27:48.417Z,8.7
2018-09-30T05:28:28.976Z,8.71
2018-09-30T05:29:09.522Z,8.67
2018-09-30T05:29:50.087Z,8.67
2018-09-30T05:30:30.644Z,8.78
2018-09-30T05:31:11.242Z,8.78
2018-09-30T05:31:51.751Z,8.73
2018-09-30T05:32:32.325Z,8.67
2018-09-30T05:33:12.888Z,8.74
2018-09-30T05:33:53.453Z,8.76
2018-09-30T05:34:34.002Z,8.74
2018-09-30T05:35:14.554Z,8.74
2018-09-30T05:35:55.107Z,8.76
2018-09-30T05:36:35.658Z,8.74
2018-09-30T05:37:16.227Z,8.74
2018-09-30T05:37:56.767Z,8.74
2018-09-30T05:38:37.319Z,8.71
2018-09-30T05:39:17.876Z,8.67
2018-09-30T05:39:58.455Z,8.79
2018-09-30T05:40:39.008Z,8.66
2018-09-30T05:41:19.570Z,8.63
2018-09-30T05:42:00.127Z,8.64
2018-09-30T05:42:40.701Z,8.63
2018-09-30T05:43:21.261Z,8.64
2018-09-30T05:44:01.822Z,8.61
2018-09-30T05:44:42.384Z,8.61
2018-09-30T05:45:22.940Z,8.61
2018-09-30T05:46:03.498Z,8.64
2018-09-30T05:46:44.056Z,8.55
2018-09-30T05:47:24.621Z,8.49
2018-09-30T05:48:05.185Z,8.52
2018-09-30T05:48:45.748Z,8.56
2018-09-30T05:49:26.311Z,8.52
2018-09-30T05:50:06.873Z,8.53
2018-09-30T05:50:47.457Z,8.48
2018-09-30T05:51:28.021Z,8.48
2018-09-30T05:52:08.555Z,8.51
2018-09-30T05:52:49.117Z,8.52
2018-09-30T05:53:29.673Z,8.46
2018-09-30T05:54:10.249Z,8.55
2018-09-30T05:54:50.827Z,8.44
2018-09-30T05:55:31.383Z,8.48
2018-09-30T05:56:11.931Z,8.48
2018-09-30T05:56:52.489Z,8.41
2018-09-30T05:57:33.103Z,8.51
2018-09-30T05:58:13.628Z,8.46
2018-09-30T05:58:54.189Z,8.46
2018-09-30T05:59:34.751Z,8.51
2018-09-30T06:00:15.304Z,8.45
2018-09-30T06:00:55.861Z,8.49
2018-09-30T06:01:36.440Z,8.48
2018-09-30T06:02:16.996Z,8.46
2018-09-30T06:02:57.554Z,8.44
2018-09-30T06:03:38.125Z,8.51
2018-09-30T06:04:18.684Z,8.38
2018-09-30T06:04:59.232Z,8.41
2018-09-30T06:05:40.108Z,8.46
2018-09-30T06:06:20.666Z,8.49
2018-09-30T06:07:01.261Z,8.49
2018-09-30T06:07:41.825Z,8.48
2018-09-30T06:08:22.729Z,8.36
2018-09-30T06:09:03.377Z,8.44
2018-09-30T06:09:44.195Z,8.45
2018-09-30T06:10:24.792Z,8.52
2018-09-30T06:11:05.349Z,8.49
2018-09-30T06:11:45.957Z,8.46
2018-09-30T06:12:26.512Z,8.44
2018-09-30T06:13:07.226Z,8.46
2018-09-30T06:13:47.828Z,8.36
2018-09-30T06:14:28.335Z,8.52
2018-09-30T06:15:08.879Z,8.41
2018-09-30T06:15:49.482Z,8.44
2018-09-30T06:16:29.995Z,8.46
2018-09-30T06:17:10.551Z,8.45
2018-09-30T06:17:51.104Z,8.48
2018-09-30T06:18:31.655Z,8.44
2018-09-30T06:19:12.216Z,8.48
2018-09-30T06:19:52.768Z,8.48
2018-09-30T06:20:33.329Z,8.52
2018-09-30T06:21:13.903Z,8.46
2018-09-30T06:21:54.433Z,8.56
2018-09-30T06:22:34.988Z,8.52
2018-09-30T06:23:15.562Z,8.66
2018-09-30T06:23:56.160Z,8.52
2018-09-30T06:24:36.693Z,8.6
2018-09-30T06:25:17.248Z,8.63
2018-09-30T06:25:57.799Z,8.61
2018-09-30T06:26:38.482Z,8.64
2018-09-30T06:27:19.036Z,8.64
2018-09-30T06:27:59.618Z,8.61
2018-09-30T06:28:40.185Z,8.69
2018-09-30T06:29:20.748Z,8.63
2018-09-30T06:30:01.299Z,8.7
2018-09-30T06:30:41.854Z,8.74
2018-09-30T06:31:22.402Z,8.73
2018-09-30T06:32:03.077Z,8.74
2018-09-30T06:32:43.575Z,8.78
2018-09-30T06:33:24.170Z,8.79
2018-09-30T06:34:04.734Z,8.78
2018-09-30T06:34:45.289Z,8.76
2018-09-30T06:35:25.852Z,8.74
2018-09-30T06:36:06.429Z,8.81
2018-09-30T06:36:46.998Z,8.76
2018-09-30T06:37:27.551Z,8.78
2018-09-30T06:38:08.119Z,8.79
2018-09-30T06:38:48.728Z,8.85
2018-09-30T06:39:29.279Z,8.78
2018-09-30T06:40:09.830Z,8.81
2018-09-30T06:40:50.401Z,8.74
2018-09-30T06:41:30.960Z,8.79
2018-09-30T06:42:11.511Z,8.81
2018-09-30T06:42:52.072Z,8.74
2018-09-30T06:43:32.634Z,8.76
2018-09-30T06:44:13.195Z,8.79
2018-09-30T06:44:53.785Z,8.74
2018-09-30T06:45:34.530Z,8.76
2018-09-30T06:46:14.911Z,8.71
2018-09-30T06:46:55.493Z,8.81
2018-09-30T06:47:36.076Z,8.82
2018-09-30T06:48:16.647Z,8.91
2018-09-30T06:48:57.213Z,8.92
2018-09-30T06:49:37.816Z,8.88
2018-09-30T06:50:18.404Z,8.92
2018-09-30T06:50:59.047Z,8.97
2018-09-30T06:51:39.521Z,8.95
2018-09-30T06:52:20.087Z,8.94
2018-09-30T06:53:00.663Z,8.95
2018-09-30T06:53:41.241Z,8.92
2018-09-30T06:54:21.802Z,8.97
2018-09-30T06:55:02.361Z,8.99
2018-09-30T06:55:42.920Z,8.97
2018-09-30T06:56:23.484Z,8.99
2018-09-30T06:57:04.056Z,8.94
2018-09-30T06:57:44.608Z,8.99
2018-09-30T06:58:25.161Z,9.08
2018-09-30T06:59:05.717Z,9.14
2018-09-30T06:59:46.314Z,9.08
2018-09-30T07:00:26.884Z,9.11
2018-09-30T07:01:07.450Z,9.04
2018-09-30T07:01:48.007Z,9.11
2018-09-30T07:02:28.583Z,9.22
2018-09-30T07:03:09.110Z,9.18
2018-09-30T07:03:49.659Z,9.14
2018-09-30T07:04:30.234Z,9.22
2018-09-30T07:05:10.791Z,9.22
2018-09-30T07:05:51.357Z,9.25
2018-09-30T07:06:31.909Z,9.26
2018-09-30T07:07:12.501Z,9.19
2018-09-30T07:07:53.079Z,9.28
2018-09-30T07:08:33.647Z,9.31
2018-09-30T07:09:14.193Z,9.36
2018-09-30T07:09:54.758Z,9.41
2018-09-30T07:10:35.315Z,9.41
2018-09-30T07:11:15.874Z,9.34
2018-09-30T07:11:56.482Z,9.46
2018-09-30T07:12:37.034Z,9.56
2018-09-30T07:13:17.594Z,9.5
2018-09-30T07:13:58.173Z,9.61
2018-09-30T07:14:38.739Z,9.73
2018-09-30T07:15:19.328Z,9.73
2018-09-30T07:15:59.892Z,9.82
2018-09-30T07:16:40.467Z,9.94
2018-09-30T07:17:21.023Z,10.02
2018-09-30T07:18:01.580Z,10.28
2018-09-30T07:18:42.139Z,10.49
2018-09-30T07:19:22.718Z,10.71
2018-09-30T07:20:03.284Z,11
2018-09-30T07:20:43.849Z,11.15
2018-09-30T07:21:24.430Z,11.5
2018-09-30T07:22:04.986Z,11.68
2018-09-30T07:22:45.609Z,12.1
2018-09-30T07:23:26.110Z,12.36
2018-09-30T07:24:06.660Z,12.61
2018-09-30T07:24:47.211Z,12.9
2018-09-30T07:25:27.778Z,13.27
2018-09-30T07:26:08.342Z,13.46
2018-09-30T07:26:48.897Z,13.71
2018-09-30T07:27:29.466Z,13.93
2018-09-30T07:28:10.043Z,14.17
2018-09-30T07:28:50.649Z,14.32
2018-09-30T07:29:31.202Z,14.59
2018-09-30T07:30:11.751Z,14.73
2018-09-30T07:30:52.323Z,14.91
2018-09-30T07:31:32.890Z,14.99
2018-09-30T07:32:13.450Z,15.15
2018-09-30T07:32:54.027Z,15.31
2018-09-30T07:33:34.592Z,15.39
2018-09-30T07:34:15.153Z,15.37
2018-09-30T07:34:55.712Z,15.55
2018-09-30T07:35:36.291Z,15.68
2018-09-30T07:36:16.853Z,15.79
2018-09-30T07:36:57.487Z,15.94
2018-09-30T07:37:38.085Z,16.01
2018-09-30T07:38:18.625Z,16.17
2018-09-30T07:38:59.192Z,16.31
2018-09-30T07:39:39.769Z,16.43
2018-09-30T07:40:20.366Z,16.61
2018-09-30T07:41:00.962Z,16.69
2018-09-30T07:41:41.594Z,16.79
2018-09-30T07:42:22.167Z,17.02
2018-09-30T07:43:02.796Z,17.15
2018-09-30T07:43:43.445Z,17.19
2018-09-30T07:44:24.061Z,17.33
2018-09-30T07:45:04.642Z,17.45
2018-09-30T07:45:45.207Z,17.46
2018-09-30T07:46:25.788Z,17.7
2018-09-30T07:47:06.366Z,17.63
2018-09-30T07:47:46.940Z,17.7
2018-09-30T07:48:27.528Z,17.87
2018-09-30T07:49:08.125Z,17.95
2018-09-30T07:49:48.662Z,18.07
2018-09-30T07:50:29.266Z,18.19
2018-09-30T07:51:09.952Z,18.25
2018-09-30T07:51:50.567Z,18.33
2018-09-30T07:52:31.154Z,18.37
2018-09-30T07:53:11.697Z,18.47
2018-09-30T07:53:52.279Z,18.41
2018-09-30T07:54:32.846Z,18.49
2018-09-30T07:55:13.424Z,18.4
2018-09-30T07:55:54.019Z,18.58
2018-09-30T07:56:34.630Z,18.6
2018-09-30T07:57:15.174Z,18.66
2018-09-30T07:57:55.801Z,18.8
2018-09-30T07:58:36.370Z,18.74
2018-09-30T07:59:16.963Z,18.81
2018-09-30T07:59:57.540Z,18.88
2018-09-30T08:00:38.112Z,19.02
2018-09-30T08:01:18.754Z,19.08
2018-09-30T08:01:59.362Z,19.04
2018-09-30T08:02:39.931Z,19.21
2018-09-30T08:03:20.515Z,19.16
2018-09-30T08:04:01.190Z,19.36
2018-09-30T08:04:41.761Z,19.29
2018-09-30T08:05:22.317Z,19.49
2018-09-30T08:06:02.927Z,19.47
2018-09-30T08:06:43.494Z,19.49
2018-09-30T08:07:24.088Z,19.55
2018-09-30T08:08:04.674Z,19.49
2018-09-30T08:08:45.240Z,19.56
2018-09-30T08:09:25.821Z,19.62
2018-09-30T08:10:06.458Z,19.62
2018-09-30T08:10:47.029Z,19.7
2018-09-30T08:11:27.626Z,19.64
2018-09-30T08:12:08.209Z,19.64
2018-09-30T08:12:48.785Z,19.58
2018-09-30T08:13:29.378Z,19.63
2018-09-30T08:14:09.989Z,19.62
2018-09-30T08:14:50.558Z,19.58
2018-09-30T08:15:31.156Z,19.52
2018-09-30T08:16:11.740Z,19.51
2018-09-30T08:16:52.421Z,19.37
2018-09-30T08:17:32.946Z,19.34
2018-09-30T08:18:13.571Z,19.3
2018-09-30T08:18:54.151Z,19.07
2018-09-30T08:19:34.764Z,19
2018-09-30T08:20:15.333Z,18.88
2018-09-30T08:20:55.915Z,18.81
2018-09-30T08:21:36.485Z,18.7
2018-09-30T08:22:17.055Z,18.65
2018-09-30T08:22:57.632Z,18.53
2018-09-30T08:23:38.235Z,18.45
2018-09-30T08:24:19.006Z,18.4
2018-09-30T08:24:59.405Z,18.44
2018-09-30T08:25:39.976Z,18.35
2018-09-30T08:26:20.582Z,18.33
2018-09-30T08:27:01.200Z,18.31
2018-09-30T08:27:41.792Z,18.25
2018-09-30T08:28:22.364Z,18.18
2018-09-30T08:29:02.997Z,18.15
2018-09-30T08:29:43.540Z,18.08
2018-09-30T08:30:24.109Z,18.18
2018-09-30T08:31:04.679Z,18.03
2018-09-30T08:31:45.319Z,18.11
2018-09-30T08:32:25.940Z,18.05
2018-09-30T08:33:06.513Z,18.07
2018-09-30T08:33:47.099Z,18.07
2018-09-30T08:34:27.675Z,18.1
2018-09-30T08:35:08.246Z,18.1
2018-09-30T08:35:48.816Z,18.13
2018-09-30T08:36:29.415Z,18.15
2018-09-30T08:37:10.034Z,18.15
2018-09-30T08:37:50.613Z,18.1
2018-09-30T08:38:31.169Z,18.13
2018-09-30T08:39:11.736Z,18.15
2018-09-30T08:39:52.490Z,18.1
2018-09-30T08:40:32.922Z,18.01
2018-09-30T08:41:13.633Z,18.07
2018-09-30T08:41:54.212Z,18
2018-09-30T08:42:34.775Z,18
2018-09-30T08:43:15.356Z,18.01
2018-09-30T08:43:55.971Z,18.03
2018-09-30T08:44:36.537Z,17.98
2018-09-30T08:45:17.101Z,17.95
2018-09-30T08:45:57.677Z,17.95
2018-09-30T08:46:38.312Z,17.94
2018-09-30T08:47:18.926Z,17.95
2018-09-30T08:47:59.394Z,17.92
2018-09-30T08:48:39.970Z,17.85
2018-09-30T08:49:20.605Z,17.94
2018-09-30T08:50:01.122Z,17.82
2018-09-30T08:50:41.700Z,17.85
2018-09-30T08:51:22.259Z,17.82
2018-09-30T08:52:02.859Z,17.86
2018-09-30T08:52:43.466Z,17.86
2018-09-30T08:53:24.063Z,17.85
2018-09-30T08:54:04.614Z,17.82
2018-09-30T08:54:45.196Z,17.83
2018-09-30T08:55:25.762Z,17.83
2018-09-30T08:56:06.337Z,17.76